Decoded Metar for UKDR (KRIVYY RIH in UKRAINE) (IATA:N/A) | Meteo·Mobile Aviation Weather
aviador You're here:

UKDR Decoded Metar

KRIVYY RIH in UKRAINE
Report Time2019-09-17 00:00:00
UTC Time2019-09-17 00:13:46
Flight Rules vfr VFR
Wind200° at 4 kt
W.Decomp.*RWY 18: 3.8 kt HW 1.1 kt RCW
Visibility9999 m
Phenomena:N/A
Clouds:N/A
Expected CloudBase > 3,200 ft AGL from Temp-Dew spread
CeilingNone
Temp14°C (ISA -0)
Dew Point06°C (59% RH)
AAT11.7°C
QNH1010 hPa
Density Alt614 ft
Elevation407 ft
Report Wrong Elevation
Raw Report
UKDR 170000Z 20002MPS CAVOK 14/06 Q1010 R18/09//70 NOSIG=

Extra information for UKDR:More info

Metar Taf Metar & Taf Last 4 Metars F.Rules Stats Wind Profile Meteogram Temp Stats Airport Information Weather charts Add Link Nearby VenuesMetar ALERT Operation Metar Decoded Social comments